Middleburg, FL (32050)

11:38 AM EST on December 22, 2014 (GMT -0500)
Ravines | Change Station
CLOSE
Current Station
Personal Weather Station
Location: Middleburg, FL
Elevation: 24 ft
Nearby Weather Stations

Elev 24 ft 30.06 °N, 81.86 °W | Updated 9 minutes ago

Mostly Cloudy
Mostly Cloudy
70.9 °F
Feels Like 70.9 °F
N
2.7
Wind Variable Wind from WNW

Today
High -- | Low -- °F
--% Chance of Precip.
Yesterday
High -- | Low -- °F
Precip. -- in
7:19 AM 5:32 PM
New Moon, 1% visible
Pressure 29.99 in
Visibility 7.0 miles
Clouds Mostly Cloudy 3500 ft
Mostly Cloudy 5000 ft
Dew Point 70 °F
Humidity 98%
Rainfall 0.57 in
Snow Depth Not available.
UV 3 out of 12
Pollen .50 out of 12
Air Quality Not available.
Flu Activity Not available.
SPECI KVQQ 221620Z 15005KT 7SM BKN035 BKN050 19/19 A2999

More Conditions Fewer Conditions

Pressure 29.99 in
Visibility 7.0 miles
Clouds Mostly Cloudy 3500 ft
Mostly Cloudy 5000 ft
Dew Point 70 °F
Humidity 98%
Rainfall 0.57 in
Snow Depth Not available.
UV 3 out of 12
Pollen .50 out of 12
Air Quality Not available.
Flu Activity Not available.
SPECI KVQQ 221620Z 15005KT 7SM BKN035 BKN050 19/19 A2999

More Conditions Fewer Conditions

10-Day Weather Forecast

Almanac

Astronomy

Dec. 22, 2014 Rise Set
Actual Time
Civil Twilight
Nautical Twilight
Astronomical Twilight
Moon
Length of Visible Light
Length of Day
Tomorrow will be .
, % of the Moon is Illuminated

Today's Extremes

State Highs State Lows

Community

WunderPhotos

Upload Photos

1,779,636 photos uploaded!

WunderBlogs® & News

Nearby

Air Quality

  Air Quality AQ Index Pollutant
Not available.

Snow Depth

Station Depth Elevation

Earthquake Activity

City Distance Mag. Time & Date
Minimum magnitude displayed is 2.5.

Coastal Water Temperatures

Place Temperature

Nearby Weather Stations